Tiempo atmosférico en la estación meteorológica de Priego de Cordoba, Córdoba (520 m.)



Fecha
DESCASC
Temp. máxima en grados centígrados (hora)
DESCASC
Temp. mínima en grados centígrados (hora)
DESCASC
Temp. media en grados centígrados
DESCASC
Racha de viento máxima en m/sg (hora)
DESCASC
Velocidad máxima media en intervalos de 10 minutos(hora)
DESCASC
Precipitaciones diarias en mm
DESCASC
Precipitaciones de 00:00 a 06:00 en mm
DESCASC
Precipitaciones de 06:00 a 12:00 en mm
DESCASC
Precipitaciones de 12:00 a 18:00 en mm
DESCASC
Precipitaciones de 18:00 a 24:00 en mm
DESCASC
02-07-2020 33 (17:50) 20.2 (05:40) 26.6 11.39 (18:30) 7.22 (23:40) 0 0 0 0 0
01-07-2020 34.4 (16:30) 17.8 (07:10) 26.1 9.17 (18:40) 6.11 (18:40) 0 0 0 0 0
30-06-2020 36.4 (18:00) 18.2 (00:00) 27.3 10.28 (17:40) 6.39 (18:10) 0 0 0 0 0
29-06-2020 37.2 (17:40) 20.4 (00:00) 28.8 9.17 (19:20) 6.39 (19:20) 0 0 0 0 0
28-06-2020 36.1 (17:20) 17.1 (00:00) 26.6 7.78 (18:40) 4.72 (18:20) 0 0 0 0 0
27-06-2020 32.6 (19:10) 15 (00:00) 23.8 9.72 (17:20) 5.56 (13:30) 0 0 0 0 0
26-06-2020 29.1 (17:50) 17.2 (00:00) 23.2 10.83 (15:20) 7.22 (14:40) 0 0 0 0 0
25-06-2020 33.2 (17:20) 16.9 (00:00) 25.1 9.17 (18:30) 6.39 (18:30) 0 0 0 0 0
24-06-2020 35.4 (15:50) 19.1 (00:00) 27.3 9.17 (01:20) 5.56 (18:00) 0 0 0 0 0
23-06-2020 38.5 (16:40) 18.1 (00:00) 28.3 12.78 (17:40) 8.89 (17:40) 0 0 0 0 0
22-06-2020 37.8 (18:00) 16.8 (00:00) 27.3 9.44 (13:10) 6.39 (13:00) 0 0 0 0 0
21-06-2020 35.3 (18:10) 16.1 (00:00) 25.7 7.22 (14:00) 4.44 (14:00) 0 0 0 0 0
20-06-2020 32.9 (17:40) 13.6 (00:00) 23.3 13.61 (16:40) 5 (17:50) 0 0 0 0 0
19-06-2020 29.5 (18:00) 16.1 (00:00) 22.8 9.17 (00:10) 6.39 (00:30) 0 0 0 0 0
18-06-2020 28.8 (17:40) 13.1 (00:00) 20.9 11.11 (16:10) 6.94 (23:40) 0 0 0 0 0
17-06-2020 27.3 (18:20) 14.9 (00:00) 21.1 10.83 (00:10) 8.06 (00:10) 0 0 0 0 0
16-06-2020 27.3 (17:40) 15.7 (00:00) 21.5 12.5 (20:20) 8.89 (19:50) 0 0 0 0 0
15-06-2020 27.7 (16:00) 12.5 (00:00) 20.1 9.44 (17:20) 6.39 (18:30) 0 0 0 0 0
14-06-2020 26.1 (16:10) 13 (00:00) 19.6 10.56 (17:30) 7.5 (22:40) 0 0 0 0 0
13-06-2020 23.4 (18:50) 11.6 (00:00) 17.5 11.67 (00:20) 7.22 (00:20) 0 0 0 0 0
12-06-2020 20.4 (18:00) 13 (00:00) 16.7 13.89 (23:20) 9.44 (23:20) 1.2 1.2 0 0 0
11-06-2020 23.2 (16:10) 14.1 (00:00) 18.7 15.83 (19:20) 10.56 (18:30) 0 0 0 0 0
10-06-2020 27.5 (16:10) 12.1 (00:00) 19.8 9.72 (16:50) 6.67 (23:50) 0 0 0 0 0
09-06-2020 25.7 (17:40) 12.1 (00:00) 18.9 10 (23:30) 6.39 (23:50) 0 0 0 0 0
08-06-2020 23.2 (19:40) 15.4 (06:50) 19.3 12.5 (00:10) 9.17 (00:40) 0 0 0 0 0
07-06-2020 23.8 (16:00) 16.3 (00:00) 20 19.17 (16:10) 9.72 (15:20) 0 0 0 0 0
06-06-2020 27.8 (17:10) 13.3 (00:00) 20.5 12.5 (19:30) 9.17 (19:30) 0 0 0 0 0
05-06-2020 25.6 (18:50) 14.8 (00:00) 20.2 11.11 (01:10) 7.22 (00:10) 0 0 0 0 0
04-06-2020 20.7 (16:50) 16.6 (00:00) 18.7 12.5 (12:10) 8.89 (12:10) 4.4 0 0 3.8 0.6
03-06-2020 26.9 (19:00) 13.7 (00:00) 20.3 11.11 (18:30) 8.06 (18:40) 0 0 0 0 0

Gráficas

Temp. máximas Temp. mínimas Temp. medias Precipitaciones Rachas de viento máximas Velocidades máximas media en intervalos de 10 minutos

Datos horarios

Fecha y hora oficial Temperatura (ºC) Velocidad del viento (km/h) Dirección del viento Racha (km/h) Dirección de racha Precipitación (mm) Presión (hPa) Tendencia (hPa) Humedad (%)
2020-07-02 23:00:00 27.2 17 Sur 26 Sudoeste 0 -- -- 36
2020-07-02 22:00:00 28.4 8 Sur 24 Sudoeste 0 -- -- 29
2020-07-02 21:00:00 31.1 14 Sudoeste 40 Sudoeste 0 -- -- 25
2020-07-02 20:00:00 32.2 23 Sudoeste 34 Sudoeste 0 -- -- 21
2020-07-02 19:00:00 32.6 17 Sudoeste 41 Sudoeste 0 -- -- 24
2020-07-02 18:00:00 32.8 25 Sudoeste 38 Oeste 0 -- -- 24
2020-07-02 17:00:00 32.6 24 Sudoeste 35 Oeste 0 -- -- 26
2020-07-02 16:00:00 32.7 24 Sudoeste 33 Sudoeste 0 -- -- 25
2020-07-02 15:00:00 32.5 20 Sudoeste 30 Sudoeste 0 -- -- 25
2020-07-02 14:00:00 31.9 17 Norte 28 Norte 0 -- -- 33
2020-07-02 13:00:00 32.1 11 Sur 23 Oeste 0 -- -- 33
2020-07-02 12:00:00 30.3 8 Nordeste 18 Norte 0 -- -- 36
2020-07-02 11:00:00 27.5 5 Norte 9 Norte 0 -- -- 42
2020-07-02 10:00:00 24.7 5 Sudoeste 12 Oeste 0 -- -- 45
2020-07-02 09:00:00 22.3 9 Sudoeste 14 Sudoeste 0 -- -- 52
2020-07-02 08:00:00 20.9 7 Sudoeste 17 Sudoeste 0 -- -- 53
2020-07-02 07:00:00 20.5 14 Sudoeste 17 Sudoeste 0 -- -- 48
2020-07-02 06:00:00 20.7 4 Sudoeste 11 Sur 0 -- -- 44
2020-07-02 05:00:00 21.3 5 Sur 9 Sur 0 -- -- 43
2020-07-02 04:00:00 20.4 8 Sudoeste 9 Sudoeste 0 -- -- 48
2020-07-02 03:00:00 22.1 0 Calma 9 Sudoeste 0 -- -- 46
2020-07-02 02:00:00 23.3 7 Sudoeste 14 Sudoeste 0 -- -- 43
2020-07-02 01:00:00 23.9 12 Sudoeste 29 Sur 0 -- -- 42
2020-07-02 00:00:00 26.1 18 Sur 21 Sur 0 -- -- 37
2020-07-01 23:00:00 26.6 16 Sur 19 Sur 0 -- -- 33
2020-07-01 22:00:00 28.9 5 Sudoeste 19 Oeste 0 -- -- 27
2020-07-01 21:00:00 31.7 14 Sudoeste 23 Oeste 0 -- -- 22
2020-07-01 20:00:00 33.3 18 Sudoeste 30 Oeste 0 -- -- 21
2020-07-01 19:00:00 33.8 19 Oeste 33 Oeste 0 -- -- 20
2020-07-01 18:00:00 34.2 22 Sudoeste 31 Sudoeste 0 -- -- 21
2020-07-01 17:00:00 34.2 15 Sudoeste 32 Sudoeste 0 -- -- 21
2020-07-01 16:00:00 34.1 13 Sur 30 Sudoeste 0 -- -- 21
2020-07-01 15:00:00 33.6 13 Sudoeste 24 Oeste 0 -- -- 21
2020-07-01 14:00:00 32.9 7 Sudeste 23 Noroeste 0 -- -- 33
2020-07-01 13:00:00 31.1 7 Sur 18 Nordeste 0 -- -- 34
2020-07-01 12:00:00 30.1 4 Sudeste 14 Nordeste 0 -- -- 38
2020-07-01 11:00:00 28.4 4 Sudeste 10 Sur 0 -- -- 43
2020-07-01 10:00:00 24.7 3 Sur 10 Sudoeste 0 -- -- 54
2020-07-01 09:00:00 21.6 3 Sudoeste 13 Sudoeste 0 -- -- 63
2020-07-01 08:00:00 18.8 9 Oeste 12 Sudoeste 0 -- -- 71
2020-07-01 07:00:00 17.9 9 Sudoeste 13 Oeste 0 -- -- 77
2020-07-01 06:00:00 19.4 5 Sudoeste 6 Sur 0 -- -- 72
2020-07-01 05:00:00 20.6 4 Norte 10 Este 0 -- -- 67
2020-07-01 04:00:00 22.1 6 Nordeste 14 Nordeste 0 -- -- 63
2020-07-01 03:00:00 23.2 3 Nordeste 16 Sudoeste 0 -- -- 63
2020-07-01 02:00:00 24.1 11 Sudoeste 20 Sudoeste 0 -- -- 61
2020-07-01 01:00:00 25.3 14 Sudoeste 22 Sudoeste 0 -- -- 57
2020-07-01 00:00:00 26.5 12 Sudoeste 29 Sudoeste 0 -- -- 53
2020-06-30 23:00:00 28 17 Sudoeste 31 Sudoeste 0 -- -- 48
2020-06-30 22:00:00 30.5 18 Sudoeste 28 Oeste 0 -- -- 36
2020-06-30 21:00:00 33.2 15 Oeste 27 Oeste 0 -- -- 29
2020-06-30 20:00:00 34.9 17 Sudoeste 26 Oeste 0 -- -- 25
2020-06-30 19:00:00 36 17 Sudoeste 31 Sudoeste 0 -- -- 23
2020-06-30 18:00:00 36.4 18 Oeste 37 Sudoeste 0 -- -- 23
2020-06-30 17:00:00 35.9 15 Oeste 32 Sudoeste 0 -- -- 24
2020-06-30 16:00:00 35.7 16 Oeste 32 Oeste 0 -- -- 23
2020-06-30 15:00:00 34.4 13 Oeste 26 Sudoeste 0 -- -- 25
2020-06-30 14:00:00 34.3 13 Nordeste 24 Norte 0 -- -- 26
2020-06-30 13:00:00 33.3 9 Norte 19 Nordeste 0 -- -- 27
2020-06-30 12:00:00 31.5 10 Nordeste 17 Nordeste 0 -- -- 29
2020-06-30 11:00:00 28.8 6 Norte 11 Norte 0 -- -- 31
2020-06-30 10:00:00 25.5 0 Calma 7 Sudoeste 0 -- -- 36
2020-06-30 09:00:00 21.4 6 Sudoeste 10 Sudoeste 0 -- -- 42
2020-06-30 08:00:00 18.3 8 Sudoeste 10 Sudoeste 0 -- -- 50
2020-06-30 07:00:00 18.4 4 Sudoeste 9 Norte 0 -- -- 48
2020-06-30 06:00:00 19.3 2 Nordeste 11 Sudoeste 0 -- -- 45
2020-06-30 05:00:00 21.7 3 Sudoeste 10 Sudoeste 0 -- -- 38
2020-06-30 04:00:00 21.8 8 Sudoeste 14 Sudoeste 0 -- -- 37
2020-06-30 03:00:00 22.8 11 Sudoeste 15 Sudoeste 0 -- -- 35
2020-06-30 02:00:00 22.7 11 Sudoeste 14 Sudoeste 0 -- -- 38
2020-06-30 01:00:00 24.8 9 Sudoeste 18 Sudoeste 0 -- -- 34
2020-06-30 00:00:00 26.5 13 Sudoeste 17 Sudoeste 0 -- -- 32
2020-06-29 23:00:00 29 13 Sur 18 Sur 0 -- -- 28
2020-06-29 22:00:00 30.6 8 Sudoeste 21 Sudoeste 0 -- -- 25
2020-06-29 21:00:00 33.3 17 Sudoeste 32 Sudoeste 0 -- -- 24
2020-06-29 20:00:00 35.3 22 Sudoeste 33 Sudoeste 0 -- -- 22
2020-06-29 19:00:00 36.5 20 Sudoeste 31 Oeste 0 -- -- 22
2020-06-29 18:00:00 37.1 13 Oeste 26 Sudoeste 0 -- -- 24
2020-06-29 17:00:00 36.9 14 Sudoeste 29 Sudoeste 0 -- -- 25
2020-06-29 16:00:00 36.4 12 Sudoeste 28 Sudoeste 0 -- -- 26
2020-06-29 15:00:00 36 11 Sudoeste 21 Sudoeste 0 -- -- 27
2020-06-29 14:00:00 34.8 10 Oeste 23 Sudoeste 0 -- -- 29
2020-06-29 13:00:00 33.3 6 Noroeste 17 Norte 0 -- -- 32
2020-06-29 12:00:00 31.5 7 Norte 12 Norte 0 -- -- 36
2020-06-29 11:00:00 29.5 6 Noroeste 11 Norte 0 -- -- 39
2020-06-29 10:00:00 26.6 5 Sudoeste 9 Sudoeste 0 -- -- 45
2020-06-29 09:00:00 23.5 4 Sudoeste 5 Sudoeste 0 -- -- 51
2020-06-29 08:00:00 20.9 4 Oeste 5 Sudoeste 0 -- -- 58
2020-06-29 07:00:00 20.4 3 Sudoeste 10 Sudoeste 0 -- -- 58
2020-06-29 06:00:00 20.9 11 Sudoeste 14 Sudoeste 0 -- -- 56
2020-06-29 05:00:00 22.2 10 Sudoeste 19 Sur 0 -- -- 50
2020-06-29 04:00:00 24 11 Sur 18 Sur 0 -- -- 44
2020-06-29 03:00:00 24.8 14 Sur 18 Sur 0 -- -- 41
2020-06-29 02:00:00 25.8 12 Sur 20 Sudoeste 0 -- -- 39
2020-06-29 01:00:00 26.4 17 Sur 21 Sur 0 -- -- 37
2020-06-29 00:00:00 26.5 14 Sur 18 Sur 0 -- -- 36
2020-06-28 23:00:00 28 11 Sudoeste 14 Sudoeste 0 -- -- 34
2020-06-28 22:00:00 30.5 9 Sudoeste 14 Sudoeste 0 -- -- 29
2020-06-28 21:00:00 33.9 6 Noroeste 18 Sudoeste 0 -- -- 25
2020-06-28 20:00:00 34.6 17 Sudoeste 26 Sudoeste 0 -- -- 25
2020-06-28 19:00:00 35.5 17 Sudoeste 28 Sudoeste 0 -- -- 24
2020-06-28 18:00:00 35.8 12 Oeste 23 Sudoeste 0 -- -- 23
2020-06-28 17:00:00 35.2 10 Sur 24 Sudoeste 0 -- -- 23
2020-06-28 16:00:00 34.8 16 Oeste 25 Sur 0 -- -- 25
2020-06-28 15:00:00 34.4 8 Noroeste 19 Sur 0 -- -- 27
2020-06-28 14:00:00 33.3 9 Oeste 22 Sudoeste 0 -- -- 29
2020-06-28 13:00:00 32 7 Sudoeste 17 Sudoeste 0 -- -- 32
2020-06-28 12:00:00 30.8 8 Nordeste 17 Nordeste 0 -- -- 37
2020-06-28 11:00:00 28.5 7 Norte 10 Nordeste 0 -- -- 41
2020-06-28 10:00:00 25.4 0 Calma 6 Oeste 0 -- -- 50
2020-06-28 09:00:00 20.4 7 Sudoeste 9 Sudoeste 0 -- -- 62
2020-06-28 08:00:00 17.9 6 Sudoeste 10 Sudoeste 0 -- -- 69
2020-06-28 07:00:00 17.1 7 Sudoeste 10 Sudoeste 0 -- -- 71
2020-06-28 06:00:00 19 0 Calma 10 Sudoeste 0 -- -- 64
2020-06-28 05:00:00 19.4 9 Sudoeste 15 Sudoeste 0 -- -- 63
2020-06-28 04:00:00 20 9 Sudoeste 11 Sudoeste 0 -- -- 61
2020-06-28 03:00:00 22.2 4 Sudoeste 8 Sudoeste 0 -- -- 54
2020-06-28 02:00:00 23.4 7 Sur 11 Sudoeste 0 -- -- 51
2020-06-28 01:00:00 24.1 7 Sudoeste 22 Sudoeste 0 -- -- 48
2020-06-28 00:00:00 24.4 13 Sudoeste 18 Sur 0 -- -- 40
2020-06-27 23:00:00 25.6 10 Sur 12 Sur 0 -- -- 37
2020-06-27 22:00:00 27.3 6 Sudoeste 14 Oeste 0 -- -- 35
2020-06-27 21:00:00 30.4 10 Noroeste 20 Noroeste 0 -- -- 29
2020-06-27 20:00:00 31.7 9 Noroeste 18 Norte 0 -- -- 28
2020-06-27 19:00:00 32.5 9 Oeste 26 Noroeste 0 -- -- 27
2020-06-27 18:00:00 31.5 15 Norte 35 Norte 0 -- -- 28
2020-06-27 17:00:00 31.6 16 Norte 30 Norte 0 -- -- 27
2020-06-27 16:00:00 31.1 14 Nordeste 24 Nordeste 0 -- -- 28
2020-06-27 15:00:00 30.1 15 Nordeste 27 Norte 0 -- -- 30
2020-06-27 14:00:00 28.9 16 Norte 29 Norte 0 -- -- 32
2020-06-27 13:00:00 28.4 15 Norte 26 Norte 0 -- -- 34
2020-06-27 12:00:00 27 15 Nordeste 22 Nordeste 0 -- -- 38
2020-06-27 11:00:00 25.5 8 Nordeste 14 Nordeste 0 -- -- 40
2020-06-27 10:00:00 21.6 4 Noroeste 8 Sudoeste 0 -- -- 52
2020-06-27 09:00:00 19.1 0 Calma 6 Sudoeste 0 -- -- 59
2020-06-27 08:00:00 15.6 5 Sudoeste 10 Sudoeste 0 -- -- 70
2020-06-27 07:00:00 15.5 7 Sudoeste 10 Sudoeste 0 -- -- 69
2020-06-27 06:00:00 16.4 8 Sudoeste 10 Sudoeste 0 -- -- 64
2020-06-27 05:00:00 17.9 7 Sudoeste 11 Sudoeste 0 -- -- 60
2020-06-27 04:00:00 18.7 9 Sur 13 Sudoeste 0 -- -- 58
2020-06-27 03:00:00 19.6 9 Sudoeste 19 Sudoeste 0 -- -- 55
2020-06-27 02:00:00 20.9 12 Sudoeste 23 Sudoeste 0 -- -- 50
2020-06-27 01:00:00 21.9 13 Sudoeste 27 Sudoeste 0 -- -- 50
2020-06-27 00:00:00 22.8 14 Sudoeste 27 Sudoeste 0 -- -- 46
2020-06-26 23:00:00 23.4 10 Sur 15 Sur 0 -- -- 40
2020-06-26 22:00:00 24.8 12 Sudoeste 21 Sudoeste 0 -- -- 36
2020-06-26 21:00:00 27.1 15 Sudoeste 26 Sudoeste 0 -- -- 33
2020-06-26 20:00:00 27.8 19 Oeste 33 Sudoeste 0 -- -- 36
2020-06-26 19:00:00 28.7 23 Sudoeste 35 Sudoeste 0 -- -- 38
2020-06-26 18:00:00 28.9 24 Sudoeste 34 Sudoeste 0 -- -- 40
2020-06-26 17:00:00 28.3 22 Sudoeste 33 Sudoeste 0 -- -- 40
2020-06-26 16:00:00 28.1 22 Sudoeste 39 Sudoeste 0 -- -- 37
2020-06-26 15:00:00 27.3 23 Oeste 34 Sudoeste 0 -- -- 44
2020-06-26 14:00:00 27.2 19 Sudoeste 30 Sudoeste 0 -- -- 46
2020-06-26 13:00:00 26.7 13 Nordeste 26 Nordeste 0 -- -- 57
2020-06-26 12:00:00 24.3 7 Norte 13 Norte 0 -- -- 62
2020-06-26 11:00:00 21.3 4 Sudoeste 11 Oeste 0 -- -- 74
2020-06-26 10:00:00 19.2 4 Noroeste 10 Noroeste 0 -- -- 82
2020-06-26 09:00:00 18.8 0 Calma 4 Norte 0 -- -- 83
2020-06-26 08:00:00 17.5 4 Norte 14 Nordeste 0 -- -- 88
2020-06-26 07:00:00 17.3 9 Nordeste 17 Nordeste 0 -- -- 88
2020-06-26 06:00:00 17.9 11 Nordeste 21 Nordeste 0 -- -- 86
2020-06-26 05:00:00 18.7 10 Nordeste 14 Nordeste 0 -- -- 82
2020-06-26 04:00:00 19.8 4 Sur 9 Sudoeste 0 -- -- 77
2020-06-26 03:00:00 20.4 6 Sur 10 Sudoeste 0 -- -- 76
2020-06-26 02:00:00 21.1 8 Sudoeste 18 Sudoeste 0 -- -- 74
2020-06-26 01:00:00 21.8 14 Sudoeste 28 Sudoeste 0 -- -- 72
2020-06-26 00:00:00 23.1 15 Sudoeste 27 Sudoeste 0 -- -- 67
2020-06-25 23:00:00 24.6 19 Sudoeste 31 Sudoeste 0 -- -- 61
2020-06-25 22:00:00 26.7 20 Sudoeste 27 Sudoeste 0 -- -- 53
2020-06-25 21:00:00 29.7 14 Oeste 30 Oeste 0 -- -- 41
2020-06-25 20:00:00 31.4 19 Oeste 30 Sudoeste 0 -- -- 34
2020-06-25 19:00:00 32.3 18 Oeste 33 Sudoeste 0 -- -- 31
2020-06-25 18:00:00 32.9 19 Sudoeste 29 Sudoeste 0 -- -- 29
2020-06-25 17:00:00 32.7 17 Sudoeste 32 Sudoeste 0 -- -- 29
2020-06-25 16:00:00 32.6 16 Sudoeste 30 Sudoeste 0 -- -- 31
2020-06-25 15:00:00 32.3 13 Sudoeste 25 Sudoeste 0 -- -- 33
2020-06-25 14:00:00 31.3 8 Norte 18 Norte 0 -- -- 34
2020-06-25 13:00:00 30.2 6 Este 18 Nordeste 0 -- -- 36
2020-06-25 12:00:00 28.8 8 Nordeste 18 Nordeste 0 -- -- 39
2020-06-25 11:00:00 27 11 Nordeste 17 Norte 0 -- -- 40
2020-06-25 10:00:00 24.3 0 Calma 6 Sudoeste 0 -- -- 46
2020-06-25 09:00:00 19.8 5 Sudoeste 9 Sudoeste 0 -- -- 55
2020-06-25 08:00:00 17.1 7 Sudoeste 10 Sudoeste 0 -- -- 62
2020-06-25 07:00:00 17.3 6 Sudoeste 8 Sudoeste 0 -- -- 60
2020-06-25 06:00:00 18 8 Sudoeste 9 Sudoeste 0 -- -- 58
2020-06-25 05:00:00 19.2 6 Sudoeste 9 Sudoeste 0 -- -- 54
2020-06-25 04:00:00 21.6 3 Norte 18 Este 0 -- -- 46
2020-06-25 03:00:00 22.6 10 Nordeste 14 Nordeste 0 -- -- 43
2020-06-25 02:00:00 24 2 Oeste 11 Sudeste 0 -- -- 39
2020-06-25 01:00:00 25 8 Sudoeste 21 Sudoeste 0 -- -- 38
2020-06-25 00:00:00 26.2 14 Sudoeste 25 Sudoeste 0 -- -- 37
2020-06-24 23:00:00 28.2 17 Sudoeste 24 Sudoeste 0 -- -- 34
2020-06-24 22:00:00 29.8 15 Sudoeste 21 Sudoeste 0 -- -- 33
2020-06-24 21:00:00 31.9 13 Sudoeste 27 Sudoeste 0 -- -- 30
2020-06-24 20:00:00 33.6 15 Oeste 27 Noroeste 0 -- -- 29
2020-06-24 19:00:00 34.9 11 Noroeste 26 Oeste 0 -- -- 27
2020-06-24 18:00:00 35.3 20 Sudoeste 28 Sudoeste 0 -- -- 26
2020-06-24 17:00:00 35.1 18 Sudoeste 29 Sur 0 -- -- 27
2020-06-24 16:00:00 35 15 Sudoeste 26 Sudoeste 0 -- -- 28
2020-06-24 15:00:00 34.8 10 Sur 22 Sur 0 -- -- 28
2020-06-24 14:00:00 33.4 6 Noroeste 26 Oeste 0 -- -- 28
2020-06-24 13:00:00 32.2 7 Nordeste 17 Nordeste 0 -- -- 29
2020-06-24 12:00:00 30.6 10 Nordeste 23 Nordeste 0 -- -- 32
2020-06-24 11:00:00 28.4 16 Nordeste 23 Nordeste 0 -- -- 37
2020-06-24 10:00:00 25.3 3 Sur 9 Sudoeste 0 -- -- 42
2020-06-24 09:00:00 21.2 4 Sudoeste 12 Oeste 0 -- -- 50
2020-06-24 08:00:00 19.5 0 Calma 11 Oeste 0 -- -- 55
2020-06-24 07:00:00 19.8 0 Calma 14 Sur 0 -- -- 52
2020-06-24 06:00:00 20.2 10 Sur 15 Sudoeste 0 -- -- 51
2020-06-24 05:00:00 20.6 10 Sudoeste 12 Sudoeste 0 -- -- 50
2020-06-24 04:00:00 22.9 5 Norte 27 Nordeste 0 -- -- 45
2020-06-24 03:00:00 24.2 18 Nordeste 28 Nordeste 0 -- -- 41
2020-06-24 02:00:00 25.2 3 Oeste 33 Sudoeste 0 -- -- 38
2020-06-24 01:00:00 25.3 10 Norte 27 Sudoeste 0 -- -- 40
2020-06-24 00:00:00 26.4 21 Sudoeste 28 Sudoeste 0 -- -- 37
2020-06-23 23:00:00 27.8 14 Sudoeste 25 Sudoeste 0 -- -- 33
2020-06-23 22:00:00 29.4 19 Sudoeste 25 Sudoeste 0 -- -- 31
2020-06-23 21:00:00 32.2 15 Sudoeste 33 Sudoeste 0 -- -- 27
2020-06-23 20:00:00 34.3 19 Sudoeste 33 Sudoeste 0 -- -- 25
2020-06-23 19:00:00 35.5 19 Sudoeste 43 Sudoeste 0 -- -- 23
2020-06-23 18:00:00 34.5 26 Oeste 46 Sudoeste 0 -- -- 24
2020-06-23 17:00:00 37.8 13 Sudoeste 26 Sur 0 -- -- 19
2020-06-23 16:00:00 37 8 Oeste 33 Sur 0 -- -- 20
2020-06-23 15:00:00 36.5 7 Sur 28 Sudoeste 0 -- -- 20
2020-06-23 14:00:00 35.5 6 Norte 22 Norte 0 -- -- 22
2020-06-23 13:00:00 34.1 10 Norte 20 Nordeste 0 -- -- 23
2020-06-23 12:00:00 33.2 7 Norte 18 Nordeste 0 -- -- 25
2020-06-23 11:00:00 31 6 Sur 12 Sudoeste 0 -- -- 27
2020-06-23 10:00:00 28.4 7 Norte 10 Norte 0 -- -- 33
2020-06-23 09:00:00 22.2 4 Sudoeste 6 Sudoeste 0 -- -- 42
2020-06-23 08:00:00 19.4 6 Sudoeste 10 Sudoeste 0 -- -- 47
2020-06-23 07:00:00 18.3 10 Sudoeste 11 Sudoeste 0 -- -- 49
2020-06-23 06:00:00 19.9 5 Sudoeste 10 Sudoeste 0 -- -- 45
2020-06-23 05:00:00 22 3 Nordeste 11 Sudoeste 0 -- -- 38
2020-06-23 04:00:00 21.8 9 Sudoeste 12 Sudoeste 0 -- -- 38
2020-06-23 03:00:00 22.2 10 Sudoeste 13 Sudoeste 0 -- -- 39
2020-06-23 02:00:00 23.3 5 Sudoeste 10 Sudoeste 0 -- -- 36
2020-06-23 01:00:00 23.8 9 Sudoeste 22 Sudoeste 0 -- -- 36
2020-06-23 00:00:00 24.7 13 Sudoeste 17 Sudoeste 0 -- -- 35
2020-06-22 23:00:00 26.7 11 Sudoeste 18 Sur 0 -- -- 31
2020-06-22 22:00:00 29.8 15 Sudoeste 18 Sur 0 -- -- 26
2020-06-22 21:00:00 33 15 Sudoeste 27 Oeste 0 -- -- 22
2020-06-22 20:00:00 35.1 14 Oeste 28 Oeste 0 -- -- 21
2020-06-22 19:00:00 36.5 14 Sudoeste 34 Sur 0 -- -- 19
2020-06-22 18:00:00 37.8 6 Sur 18 Este 0 -- -- 18
2020-06-22 17:00:00 36.7 13 Sur 28 Sur 0 -- -- 18
2020-06-22 16:00:00 36.3 16 Oeste 26 Oeste 0 -- -- 18
2020-06-22 15:00:00 36.2 9 Este 32 Sudoeste 0 -- -- 18
2020-06-22 14:00:00 35.3 17 Sudoeste 34 Sur 0 -- -- 21
2020-06-22 13:00:00 34.2 23 Sur 34 Sur 0 -- -- 21
2020-06-22 12:00:00 33.2 17 Sudeste 28 Sur 0 -- -- 22
2020-06-22 11:00:00 30.6 10 Oeste 15 Sudoeste 0 -- -- 27
2020-06-22 10:00:00 25.5 8 Sudoeste 10 Sudoeste 0 -- -- 35
2020-06-22 09:00:00 20.9 6 Sudoeste 14 Sudoeste 0 -- -- 42
2020-06-22 08:00:00 16.9 11 Sudoeste 12 Sudoeste 0 -- -- 52
2020-06-22 07:00:00 17.5 8 Sudoeste 11 Sudoeste 0 -- -- 48
2020-06-22 06:00:00 17.6 9 Sudoeste 14 Sudoeste 0 -- -- 48
2020-06-22 05:00:00 17.7 14 Sudoeste 15 Sudoeste 0 -- -- 48
2020-06-22 04:00:00 18.4 13 Sudoeste 15 Sudoeste 0 -- -- 47
2020-06-22 03:00:00 19.2 10 Sudoeste 13 Sudoeste 0 -- -- 45
2020-06-22 02:00:00 20.9 10 Sudoeste 13 Sudoeste 0 -- -- 41
2020-06-22 01:00:00 23.4 4 Sur 7 Sudoeste 0 -- -- 35
2020-06-22 00:00:00 24.5 7 Sudoeste 12 Sudoeste 0 -- -- 33
2020-06-21 23:00:00 25.9 10 Sudoeste 12 Sudoeste 0 -- -- 32
2020-06-21 22:00:00 29.5 8 Sudoeste 13 Noroeste 0 -- -- 25
2020-06-21 21:00:00 33.4 7 Noroeste 16 Noroeste 0 -- -- 21
2020-06-21 20:00:00 34.5 8 Norte 22 Norte 0 -- -- 20
2020-06-21 19:00:00 34.8 9 Norte 22 Norte 0 -- -- 19
2020-06-21 18:00:00 35.1 6 Norte 22 Noroeste 0 -- -- 19
2020-06-21 17:00:00 34.4 12 Noroeste 21 Norte 0 -- -- 20
2020-06-21 16:00:00 34 10 Norte 26 Nordeste 0 -- -- 21
2020-06-21 15:00:00 33.2 11 Norte 24 Norte 0 -- -- 22
2020-06-21 14:00:00 32.3 16 Nordeste 26 Nordeste 0 -- -- 23
2020-06-21 13:00:00 31.7 11 Nordeste 24 Nordeste 0 -- -- 25
2020-06-21 12:00:00 30.2 8 Nordeste 15 Nordeste 0 -- -- 27
2020-06-21 11:00:00 28.1 11 Nordeste 16 Nordeste 0 -- -- 33
2020-06-21 10:00:00 25 3 Norte 8 Sudoeste 0 -- -- 39
2020-06-21 09:00:00 19.8 4 Sudoeste 10 Sudoeste 0 -- -- 49
2020-06-21 08:00:00 16.4 7 Sudoeste 12 Sudoeste 0 -- -- 60
2020-06-21 07:00:00 16.7 8 Sudoeste 12 Sudoeste 0 -- -- 57
2020-06-21 06:00:00 17.4 9 Sudoeste 12 Sudoeste 0 -- -- 55
2020-06-21 05:00:00 19 8 Sudoeste 10 Sudoeste 0 -- -- 50
2020-06-21 04:00:00 21 9 Sur 12 Sur 0 -- -- 44
2020-06-21 03:00:00 21.9 6 Sudoeste 13 Sudoeste 0 -- -- 42
2020-06-21 02:00:00 22.9 9 Sudoeste 14 Sudoeste 0 -- -- 38
2020-06-21 01:00:00 23.1 4 Sudoeste 13 Sudoeste 0 -- -- 38
2020-06-21 00:00:00 24.1 9 Sudoeste 13 Sur 0 -- -- 35
2020-06-20 23:00:00 26 9 Sur 14 Sudoeste 0 -- -- 30
2020-06-20 22:00:00 27.9 8 Sur 18 Noroeste 0 -- -- 29
2020-06-20 21:00:00 30.6 13 Noroeste 23 Oeste 0 -- -- 26
2020-06-20 20:00:00 32 13 Oeste 28 Sudoeste 0 -- -- 25
2020-06-20 19:00:00 32.6 15 Oeste 33 Oeste 0 -- -- 25
2020-06-20 18:00:00 32.6 9 Sudoeste 31 Sudoeste 0 -- -- 26
2020-06-20 17:00:00 32.1 10 Sudoeste 49 Oeste 0 -- -- 28
2020-06-20 16:00:00 31.9 8 Sur 33 Norte 0 -- -- 28
2020-06-20 15:00:00 31.1 14 Norte 28 Norte 0 -- -- 31
2020-06-20 14:00:00 30.6 15 Norte 28 Norte 0 -- -- 32
2020-06-20 13:00:00 29.9 10 Nordeste 20 Nordeste 0 -- -- 32
2020-06-20 12:00:00 28 7 Nordeste 14 Norte 0 -- -- 35
2020-06-20 11:00:00 26 10 Nordeste 14 Nordeste 0 -- -- 39
2020-06-20 10:00:00 23.6 8 Nordeste 12 Norte 0 -- -- 45
2020-06-20 09:00:00 18.4 6 Sudoeste 15 Sudoeste 0 -- -- 59
2020-06-20 08:00:00 14.9 10 Sudoeste 13 Sudoeste 0 -- -- 69
2020-06-20 07:00:00 13.7 9 Sudoeste 12 Sudoeste 0 -- -- 73
2020-06-20 06:00:00 14.2 9 Sudoeste 11 Sudoeste 0 -- -- 71
2020-06-20 05:00:00 15.2 8 Sudoeste 10 Sudoeste 0 -- -- 66
2020-06-20 04:00:00 16.4 8 Sudoeste 9 Sudoeste 0 -- -- 62
2020-06-20 03:00:00 17.6 8 Sudoeste 10 Sudoeste 0 -- -- 57
2020-06-20 02:00:00 19.8 0 Calma 14 Sudoeste 0 -- -- 51
2020-06-20 01:00:00 20.8 10 Sudoeste 14 Sudoeste 0 -- -- 47
2020-06-20 00:00:00 22 10 Sudoeste 19 Sudoeste 0 -- -- 44
2020-06-19 23:00:00 23.1 10 Sudoeste 16 Sudoeste 0 -- -- 42
2020-06-19 22:00:00 24.9 4 Sudoeste 15 Sudoeste 0 -- -- 38
2020-06-19 21:00:00 27.2 13 Oeste 21 Oeste 0 -- -- 34
2020-06-19 20:00:00 28.3 17 Sudoeste 27 Sudoeste 0 -- -- 31
2020-06-19 19:00:00 28.8 18 Sudoeste 30 Sudoeste 0 -- -- 31
2020-06-19 18:00:00 29.5 14 Sudoeste 27 Oeste 0 -- -- 30
2020-06-19 17:00:00 29 13 Oeste 30 Norte 0 -- -- 34
2020-06-19 16:00:00 28.4 14 Norte 29 Norte 0 -- -- 37
2020-06-19 15:00:00 27.7 14 Nordeste 30 Norte 0 -- -- 40
2020-06-19 14:00:00 27.1 7 Norte 25 Nordeste 0 -- -- 42
2020-06-19 13:00:00 26 12 Nordeste 22 Nordeste 0 -- -- 42
2020-06-19 12:00:00 24.9 7 Nordeste 18 Nordeste 0 -- -- 38
2020-06-19 11:00:00 23.3 6 Nordeste 12 Norte 0 -- -- 41
2020-06-19 10:00:00 20.9 4 Sudoeste 8 Oeste 0 -- -- 45
2020-06-19 09:00:00 19.1 4 Sudoeste 7 Sudoeste 0 -- -- 49
2020-06-19 08:00:00 16.8 4 Sur 9 Sur 0 -- -- 53
2020-06-19 07:00:00 16.2 5 Sudoeste 13 Sudoeste 0 -- -- 52
2020-06-19 06:00:00 16.2 10 Sudoeste 14 Sur 0 -- -- 47
2020-06-19 05:00:00 16.8 8 Sur 14 Sur 0 -- -- 44
2020-06-19 04:00:00 17.3 9 Sur 12 Sudoeste 0 -- -- 44
2020-06-19 03:00:00 18.2 6 Sudoeste 14 Sudoeste 0 -- -- 43
2020-06-19 02:00:00 19.3 12 Sudoeste 22 Sudoeste 0 -- -- 43
2020-06-19 01:00:00 20.5 15 Sudoeste 33 Sudoeste 0 -- -- 41
2020-06-19 00:00:00 21.4 22 Sudoeste 34 Sudoeste 0 -- -- 37
2020-06-18 23:00:00 22.4 21 Sudoeste 32 Sur 0 -- -- 35
2020-06-18 22:00:00 23.7 17 Sudoeste 26 Sudoeste 0 -- -- 34
2020-06-18 21:00:00 26.1 18 Oeste 31 Oeste 0 -- -- 30
2020-06-18 20:00:00 27.8 15 Oeste 28 Sudoeste 0 -- -- 30
2020-06-18 19:00:00 28.2 19 Oeste 33 Sudoeste 0 -- -- 31
2020-06-18 18:00:00 28.4 23 Sudoeste 35 Sudoeste 0 -- -- 30
2020-06-18 17:00:00 28.3 21 Sudoeste 40 Sudoeste 0 -- -- 29
2020-06-18 16:00:00 28.3 17 Sudoeste 31 Oeste 0 -- -- 31
2020-06-18 15:00:00 27.7 9 Oeste 28 Noroeste 0 -- -- 33
2020-06-18 14:00:00 27 13 Norte 32 Norte 0 -- -- 36
2020-06-18 13:00:00 26.4 13 Norte 28 Noroeste 0 -- -- 39
2020-06-18 12:00:00 25.7 11 Nordeste 21 Nordeste 0 -- -- 43
2020-06-18 11:00:00 24.1 9 Nordeste 18 Nordeste 0 -- -- 46
2020-06-18 10:00:00 22.1 10 Nordeste 14 Nordeste 0 -- -- 49
2020-06-18 09:00:00 18.9 5 Norte 19 Sudoeste 0 -- -- 58
2020-06-18 08:00:00 14.2 13 Sudoeste 15 Sudoeste 0 -- -- 73
2020-06-18 07:00:00 13.3 10 Sudoeste 13 Sudoeste 0 -- -- 76
2020-06-18 06:00:00 14.7 2 Sudoeste 12 Oeste 0 -- -- 71
2020-06-18 05:00:00 16.1 8 Sudoeste 13 Sudoeste 0 -- -- 67
2020-06-18 04:00:00 17.2 7 Sudoeste 12 Sur 0 -- -- 63
2020-06-18 03:00:00 18.6 7 Sur 17 Sudoeste 0 -- -- 59
2020-06-18 02:00:00 20.1 5 Sudoeste 26 Sudoeste 0 -- -- 55
2020-06-18 01:00:00 20.9 22 Sudoeste 31 Sudoeste 0 -- -- 53
2020-06-18 00:00:00 21 14 Sur 21 Sudoeste 0 -- -- 51
2020-06-17 23:00:00 21.9 13 Sudoeste 17 Sudoeste 0 -- -- 43
2020-06-17 22:00:00 23.6 2 Sur 21 Oeste 0 -- -- 39
2020-06-17 21:00:00 25.6 15 Sudoeste 27 Oeste 0 -- -- 35
2020-06-17 20:00:00 26.5 21 Oeste 28 Oeste 0 -- -- 32
2020-06-17 19:00:00 26.9 18 Sudoeste 31 Sudoeste 0 -- -- 32
2020-06-17 18:00:00 27.2 23 Sudoeste 35 Sudoeste 0 -- -- 33
2020-06-17 17:00:00 26.9 19 Sudoeste 32 Sudoeste 0 -- -- 35
2020-06-17 16:00:00 26.3 19 Oeste 35 Oeste 0 -- -- 36
2020-06-17 15:00:00 25.6 21 Sudoeste 36 Oeste 0 -- -- 38
2020-06-17 14:00:00 25 21 Oeste 36 Sudoeste 0 -- -- 41
2020-06-17 13:00:00 24.1 16 Sudoeste 36 Sudoeste 0 -- -- 45
2020-06-17 12:00:00 23.6 21 Sudoeste 32 Sudoeste 0 -- -- 43
2020-06-17 11:00:00 23.2 9 Sur 15 Sudoeste 0 -- -- 53
2020-06-17 10:00:00 20.1 5 Oeste 13 Sudoeste 0 -- -- 65
2020-06-17 09:00:00 17.7 8 Sudoeste 13 Sudoeste 0 -- -- 76
2020-06-17 08:00:00 15.2 8 Sudoeste 11 Sudoeste 0 -- -- 84
2020-06-17 07:00:00 15.5 6 Sudoeste 9 Sur 0 -- -- 84
2020-06-17 06:00:00 16.4 5 Sudoeste 7 Norte 0 -- -- 80
2020-06-17 05:00:00 17.4 3 Sur 19 Sur 0 -- -- 76
2020-06-17 04:00:00 18.1 11 Sudoeste 19 Sudoeste 0 -- -- 74
2020-06-17 03:00:00 18.1 10 Sudoeste 19 Sudoeste 0 -- -- 74
2020-06-17 02:00:00 18.8 13 Sur 26 Sudoeste 0 -- -- 74
2020-06-17 01:00:00 19.2 18 Sudoeste 39 Sudoeste 0 -- -- 72
2020-06-17 00:00:00 20.3 26 Sudoeste 33 Sudoeste 0 -- -- 69
2020-06-16 23:00:00 21.5 24 Sudoeste 35 Sudoeste 0 -- -- 62
2020-06-16 22:00:00 22.6 15 Sudoeste 34 Sudoeste 0 -- -- 51
2020-06-16 21:00:00 23.8 20 Oeste 45 Oeste 0 -- -- 50
2020-06-16 20:00:00 25.3 29 Sudoeste 44 Sudoeste 0 -- -- 45
2020-06-16 19:00:00 26.7 22 Oeste 41 Oeste 0 -- -- 35
2020-06-16 18:00:00 26.4 24 Oeste 44 Oeste 0 -- -- 37
2020-06-16 17:00:00 26.3 17 Oeste 42 Sudoeste 0 -- -- 35
2020-06-16 16:00:00 25.8 19 Sudoeste 40 Sudoeste 0 -- -- 34
2020-06-16 15:00:00 25.2 22 Oeste 38 Oeste 0 -- -- 35
2020-06-16 14:00:00 25.2 15 Oeste 30 Sudoeste 0 -- -- 36
2020-06-16 13:00:00 25.2 6 Sudeste 23 Este 0 -- -- 34
2020-06-16 12:00:00 23.7 9 Norte 20 Norte 0 -- -- 43
2020-06-16 11:00:00 21.8 5 Oeste 11 Sudoeste 0 -- -- 47
2020-06-16 10:00:00 20 5 Sudoeste 12 Sudoeste 0 -- -- 53
2020-06-16 09:00:00 17.3 6 Sudoeste 9 Sudoeste 0 -- -- 61
2020-06-16 08:00:00 16.3 3 Sudoeste 8 Sur 0 -- -- 63
2020-06-16 07:00:00 15.9 5 Sur 14 Sudoeste 0 -- -- 62
2020-06-16 06:00:00 16.5 10 Sudoeste 16 Sudoeste 0 -- -- 60
2020-06-16 05:00:00 17 13 Sudoeste 23 Sudoeste 0 -- -- 57
2020-06-16 04:00:00 17.1 13 Sudoeste 18 Sudoeste 0 -- -- 56
2020-06-16 03:00:00 17.9 12 Sudoeste 18 Sudoeste 0 -- -- 54
2020-06-16 02:00:00 18.2 7 Sudoeste 19 Sudoeste 0 -- -- 53
2020-06-16 01:00:00 19.2 15 Sudoeste 29 Sudoeste 0 -- -- 50
2020-06-16 00:00:00 20.6 20 Sudoeste 27 Sudoeste 0 -- -- 47
2020-06-15 23:00:00 21.3 12 Sudoeste 22 Sur 0 -- -- 41
2020-06-15 22:00:00 22.5 10 Sudoeste 24 Sudoeste 0 -- -- 39
2020-06-15 21:00:00 25 17 Sudoeste 27 Oeste 0 -- -- 37
2020-06-15 20:00:00 26 17 Sudoeste 30 Sudoeste 0 -- -- 34
2020-06-15 19:00:00 27 19 Sudoeste 30 Sudoeste 0 -- -- 33
2020-06-15 18:00:00 27.2 18 Oeste 34 Sudoeste 0 -- -- 30
2020-06-15 17:00:00 27.2 19 Sudoeste 32 Sudoeste 0 -- -- 32
2020-06-15 16:00:00 27.7 12 Sudoeste 24 Norte 0 -- -- 34
2020-06-15 15:00:00 26.4 14 Norte 23 Norte 0 -- -- 38
2020-06-15 14:00:00 25.3 9 Noroeste 17 Norte 0 -- -- 38
2020-06-15 13:00:00 24.7 9 Nordeste 18 Norte 0 -- -- 38
2020-06-15 12:00:00 22.6 9 Nordeste 21 Nordeste 0 -- -- 43
2020-06-15 11:00:00 21.1 11 Nordeste 17 Nordeste 0 -- -- 49
2020-06-15 10:00:00 19.6 6 Norte 10 Nordeste 0 -- -- 53
2020-06-15 09:00:00 15.5 4 Sur 7 Sudoeste 0 -- -- 64
2020-06-15 08:00:00 12.5 5 Sudoeste 6 Sudoeste 0 -- -- 73
2020-06-15 07:00:00 13.3 4 Nordeste 6 Norte 0 -- -- 68
2020-06-15 06:00:00 14.2 0 Calma 13 Sur 0 -- -- 64
2020-06-15 05:00:00 14.5 11 Sur 14 Sur 0 -- -- 63
2020-06-15 04:00:00 15 10 Sur 19 Sur 0 -- -- 64
2020-06-15 03:00:00 15.7 14 Sudoeste 22 Sudoeste 0 -- -- 64
2020-06-15 02:00:00 16.3 10 Sudoeste 18 Sudoeste 0 -- -- 60
2020-06-15 01:00:00 17.4 13 Sudoeste 27 Sudoeste 0 -- -- 56
2020-06-15 00:00:00 18.5 19 Sudoeste 33 Sudoeste 0 -- -- 52
2020-06-14 23:00:00 19.7 24 Sudoeste 33 Sudoeste 0 -- -- 51
2020-06-14 22:00:00 21.3 23 Sudoeste 31 Sudoeste 0 -- -- 46
2020-06-14 21:00:00 23.8 17 Oeste 33 Oeste 0 -- -- 36
2020-06-14 20:00:00 25.5 14 Oeste 36 Noroeste 0 -- -- 32
2020-06-14 19:00:00 25.6 21 Oeste 38 Oeste 0 -- -- 31
2020-06-14 18:00:00 25.7 18 Oeste 38 Oeste 0 -- -- 31
2020-06-14 17:00:00 25.9 14 Oeste 32 Oeste 0 -- -- 32
2020-06-14 16:00:00 25.9 8 Oeste 28 Norte 0 -- -- 32
2020-06-14 15:00:00 25.2 14 Norte 32 Norte 0 -- -- 32
2020-06-14 14:00:00 24 17 Norte 34 Nordeste 0 -- -- 35
2020-06-14 13:00:00 23.6 10 Nordeste 23 Norte 0 -- -- 39
2020-06-14 12:00:00 22.4 15 Nordeste 26 Nordeste 0 -- -- 45
2020-06-14 11:00:00 21.6 8 Nordeste 14 Nordeste 0 -- -- 46
2020-06-14 10:00:00 19.1 3 Sudeste 9 Oeste 0 -- -- 54
2020-06-14 09:00:00 16.4 4 Sudoeste 9 Sur 0 -- -- 58
2020-06-14 08:00:00 13.2 6 Sudoeste 10 Sur 0 -- -- 69
2020-06-14 07:00:00 13.9 6 Oeste 18 Sur 0 -- -- 66
2020-06-14 06:00:00 14.3 10 Sur 15 Sur 0 -- -- 63
2020-06-14 05:00:00 14.6 7 Sudoeste 10 Sudoeste 0 -- -- 65
2020-06-14 04:00:00 15.6 8 Sudoeste 17 Sudoeste 0 -- -- 61
2020-06-14 03:00:00 15.6 11 Sudoeste 19 Sudoeste 0 -- -- 61
2020-06-14 02:00:00 15.3 8 Sudoeste 15 Sudoeste 0 -- -- 58
2020-06-14 01:00:00 14.9 8 Sudoeste 12 Sudoeste 0 -- -- 59
2020-06-14 00:00:00 16.3 5 Sur 12 Sur 0 -- -- 54
2020-06-13 23:00:00 17.4 7 Sudoeste 12 Sudoeste 0 -- -- 50
2020-06-13 22:00:00 19.3 5 Oeste 13 Noroeste 0 -- -- 43
2020-06-13 21:00:00 21.5 10 Oeste 24 Oeste 0 -- -- 38
2020-06-13 20:00:00 22.6 13 Oeste 27 Sudoeste 0 -- -- 37
2020-06-13 19:00:00 23.2 17 Oeste 30 Sudoeste 0 -- -- 36
2020-06-13 18:00:00 22.9 15 Sudoeste 31 Sudoeste 0 -- -- 36
2020-06-13 17:00:00 22.8 18 Sudoeste 33 Sur 0 -- -- 38
2020-06-13 16:00:00 22.4 15 Sur 29 Oeste 0 -- -- 39
2020-06-13 15:00:00 21.5 13 Sudoeste 26 Sudoeste 0 -- -- 42
2020-06-13 14:00:00 21 9 Oeste 25 Oeste 0 -- -- 46
2020-06-13 13:00:00 19.4 9 Oeste 15 Sudoeste 0 -- -- 50
2020-06-13 12:00:00 17.3 7 Oeste 18 Oeste 0 -- -- 58
2020-06-13 11:00:00 16.7 5 Sudoeste 13 Sudoeste 0 -- -- 63
2020-06-13 10:00:00 15.8 3 Sudeste 10 Sur 0 -- -- 67
2020-06-13 09:00:00 14.7 5 Sudoeste 11 Sudoeste 0 -- -- 74
2020-06-13 08:00:00 12.1 4 Sudoeste 9 Sudoeste 0 -- -- 83
2020-06-13 07:00:00 11.6 9 Sudoeste 14 Sur 0 -- -- 84
2020-06-13 06:00:00 12.8 12 Sur 15 Sur 0 -- -- 79
2020-06-13 05:00:00 13 7 Sur 23 Sudoeste 0 -- -- 79
2020-06-13 04:00:00 13.7 13 Sudoeste 23 Sur 0 -- -- 75
2020-06-13 03:00:00 13.6 10 Sur 26 Sudoeste 0 -- -- 74
2020-06-13 02:00:00 13.6 22 Sur 31 Sur 0 -- -- 73
2020-06-13 01:00:00 14 23 Sudoeste 42 Sudoeste 0 -- -- 72
2020-06-13 00:00:00 14.8 27 Sudoeste 50 Sudoeste 0 -- -- 67
2020-06-12 23:00:00 15.9 27 Sudoeste 43 Sudoeste 0 -- -- 59
2020-06-12 22:00:00 16.6 15 Sudoeste 23 Sudoeste 0 -- -- 52
2020-06-12 21:00:00 18.5 17 Sudoeste 38 Oeste 0 -- -- 46
2020-06-12 20:00:00 19.1 27 Oeste 44 Sudoeste 0 -- -- 47
2020-06-12 19:00:00 19.3 24 Sudoeste 41 Sudoeste 0 -- -- 50
2020-06-12 18:00:00 20.4 24 Sudoeste 44 Sudoeste 0 -- -- 45
2020-06-12 17:00:00 19.6 26 Sudoeste 41 Sudoeste 0 -- -- 46
2020-06-12 16:00:00 18.7 24 Oeste 39 Oeste 0 -- -- 49
2020-06-12 15:00:00 17.3 25 Sudoeste 39 Sur 0 -- -- 60
2020-06-12 14:00:00 15.9 23 Sur 34 Sur 0 -- -- 70
2020-06-12 13:00:00 15.1 18 Sudoeste 28 Sudoeste 0 -- -- 73
2020-06-12 12:00:00 13.3 18 Sudoeste 22 Sudoeste 0 -- -- 80
2020-06-12 11:00:00 13.6 14 Sudoeste 19 Sudoeste 0 -- -- 82
2020-06-12 10:00:00 13.5 15 Sudoeste 24 Sudoeste 0 -- -- 84
2020-06-12 09:00:00 13.1 18 Sudoeste 28 Sudoeste 0 -- -- 87
2020-06-12 08:00:00 13.3 19 Sudoeste 26 Sudoeste 0 -- -- 87
2020-06-12 07:00:00 13 21 Sudoeste 31 Sudoeste 0 -- -- 88
2020-06-12 06:00:00 13.5 24 Sudoeste 44 Sudoeste 0.4 -- -- 89
2020-06-12 05:00:00 14.9 23 Sudoeste 33 Sudoeste 0.2 -- -- 84
2020-06-12 04:00:00 14.7 22 Sudoeste 40 Sudoeste 0 -- -- 87
2020-06-12 03:00:00 15.2 20 Sudoeste 39 Sudoeste 0.2 -- -- 83
2020-06-12 02:00:00 15.7 27 Sudoeste 41 Oeste 0 -- -- 80
2020-06-12 01:00:00 15.2 10 Sudoeste 31 Sudoeste 0.4 -- -- 86
2020-06-12 00:00:00 16.6 17 Sudoeste 39 Sudoeste 0 -- -- 72
2020-06-11 23:00:00 17 28 Sudoeste 39 Sudoeste 0 -- -- 68
2020-06-11 22:00:00 17.6 28 Sudoeste 48 Sudoeste 0 -- -- 65
2020-06-11 21:00:00 18.8 35 Sudoeste 50 Sudoeste 0 -- -- 59
2020-06-11 20:00:00 20.8 33 Sudoeste 57 Sudoeste 0 -- -- 49
2020-06-11 19:00:00 22.4 28 Sudoeste 53 Oeste 0 -- -- 40
2020-06-11 18:00:00 22.7 35 Oeste 51 Oeste 0 -- -- 38
2020-06-11 17:00:00 23 35 Oeste 52 Oeste 0 -- -- 40
2020-06-11 16:00:00 22.9 29 Sudoeste 48 Oeste 0 -- -- 37
2020-06-11 15:00:00 22.3 29 Oeste 43 Oeste 0 -- -- 42
2020-06-11 14:00:00 21.6 25 Oeste 39 Sudoeste 0 -- -- 44
2020-06-11 13:00:00 20.6 22 Oeste 37 Oeste 0 -- -- 49
2020-06-11 12:00:00 20.1 19 Oeste 30 Sudoeste 0 -- -- 49
2020-06-11 11:00:00 19.3 21 Sudoeste 32 Sudoeste 0 -- -- 49
2020-06-11 10:00:00 18.3 13 Sudoeste 27 Sur 0 -- -- 56
2020-06-11 09:00:00 16.9 17 Sudoeste 23 Sudoeste 0 -- -- 60
2020-06-11 08:00:00 15.2 9 Sur 15 Sudoeste 0 -- -- 62
2020-06-11 07:00:00 14.4 9 Sudoeste 15 Sur 0 -- -- 64
2020-06-11 06:00:00 15.1 9 Sur 12 Sur 0 -- -- 60
2020-06-11 05:00:00 14.6 7 Sudoeste 15 Sur 0 -- -- 60
2020-06-11 04:00:00 16.6 11 Sudoeste 22 Sudoeste 0 -- -- 53
2020-06-11 03:00:00 17.1 13 Sudoeste 37 Sudoeste 0 -- -- 51
2020-06-11 02:00:00 17.6 21 Sudoeste 35 Sudoeste 0 -- -- 53
2020-06-11 01:00:00 19 24 Sudoeste 33 Sudoeste 0 -- -- 53
2020-06-11 00:00:00 20.3 18 Sudoeste 35 Sudoeste 0 -- -- 49
2020-06-10 23:00:00 21.4 24 Sudoeste 32 Sudoeste 0 -- -- 47
2020-06-10 22:00:00 22.6 18 Sudoeste 32 Sudoeste 0 -- -- 46
2020-06-10 21:00:00 25 10 Oeste 31 Oeste 0 -- -- 35
2020-06-10 20:00:00 26.2 18 Oeste 31 Oeste 0 -- -- 32
2020-06-10 19:00:00 26.8 17 Oeste 35 Oeste 0 -- -- 30
2020-06-10 18:00:00 27.2 13 Oeste 33 Oeste 0 -- -- 28
2020-06-10 17:00:00 27 19 Sudoeste 35 Sudoeste 0 -- -- 28
2020-06-10 16:00:00 27 13 Oeste 31 Sudoeste 0 -- -- 30
2020-06-10 15:00:00 26.8 15 Sur 27 Sudoeste 0 -- -- 30
2020-06-10 14:00:00 25.9 17 Sudoeste 28 Sudoeste 0 -- -- 32
2020-06-10 13:00:00 25.5 12 Sur 19 Sur 0 -- -- 33
2020-06-10 12:00:00 23.1 9 Oeste 15 Sur 0 -- -- 36
2020-06-10 11:00:00 21.8 7 Sudoeste 14 Sudoeste 0 -- -- 41
2020-06-10 10:00:00 19.1 7 Oeste 10 Oeste 0 -- -- 45
2020-06-10 09:00:00 15.7 5 Sudoeste 12 Sudoeste 0 -- -- 56
2020-06-10 08:00:00 12.7 8 Sudoeste 12 Oeste 0 -- -- 66
2020-06-10 07:00:00 12.9 9 Oeste 13 Oeste 0 -- -- 66
2020-06-10 06:00:00 14.5 5 Sur 11 Sudoeste 0 -- -- 57
2020-06-10 05:00:00 14.9 6 Sudoeste 11 Sudoeste 0 -- -- 60
2020-06-10 04:00:00 15.4 7 Sur 16 Sudoeste 0 -- -- 59
2020-06-10 03:00:00 16.3 15 Sudoeste 23 Sudoeste 0 -- -- 60
2020-06-10 02:00:00 17.6 17 Sudoeste 28 Sudoeste 0 -- -- 59
2020-06-10 01:00:00 18.4 18 Sudoeste 28 Sudoeste 0 -- -- 60
2020-06-10 00:00:00 19.5 19 Sudoeste 36 Sudoeste 0 -- -- 57
2020-06-09 23:00:00 20.6 20 Sudoeste 35 Oeste 0 -- -- 51
2020-06-09 22:00:00 21.5 4 Sudoeste 15 Oeste 0 -- -- 38
2020-06-09 21:00:00 24.2 10 Oeste 25 Sudoeste 0 -- -- 33
2020-06-09 20:00:00 25.2 17 Sudoeste 28 Oeste 0 -- -- 31
2020-06-09 19:00:00 25.4 14 Oeste 32 Sudoeste 0 -- -- 31
2020-06-09 18:00:00 25.2 21 Sudoeste 33 Sudoeste 0 -- -- 32
2020-06-09 17:00:00 25.2 12 Noroeste 29 Noroeste 0 -- -- 31
2020-06-09 16:00:00 24.6 14 Oeste 30 Oeste 0 -- -- 34
2020-06-09 15:00:00 23.7 18 Oeste 32 Sudoeste 0 -- -- 35
2020-06-09 14:00:00 23.7 15 Sudoeste 25 Oeste 0 -- -- 36
2020-06-09 13:00:00 22.1 5 Nordeste 16 Norte 0 -- -- 46
2020-06-09 12:00:00 22.5 5 Sur 21 Norte 0 -- -- 47
2020-06-09 11:00:00 19.9 6 Sudoeste 14 Oeste 0 -- -- 53
2020-06-09 10:00:00 18.3 5 Sur 14 Sudoeste 0 -- -- 58
2020-06-09 09:00:00 14.9 8 Sudoeste 9 Sudoeste 0 -- -- 64
2020-06-09 08:00:00 12.6 5 Sudoeste 6 Sudoeste 0 -- -- 70
2020-06-09 07:00:00 12.4 0 Calma 4 Noroeste 0 -- -- 69
2020-06-09 06:00:00 13.4 0 Calma 7 Sudoeste 0 -- -- 65
2020-06-09 05:00:00 13.9 6 Sudoeste 12 Sur 0 -- -- 62
2020-06-09 04:00:00 14.1 6 Sudoeste 16 Sudoeste 0 -- -- 64
2020-06-09 03:00:00 14.8 9 Sudoeste 17 Sur 0 -- -- 63
2020-06-09 02:00:00 15.6 8 Sudoeste 27 Sudoeste 0 -- -- 63
2020-06-09 01:00:00 16.4 17 Sudoeste 33 Sudoeste 0 -- -- 61
2020-06-09 00:00:00 17.4 23 Sudoeste 37 Sudoeste 0 -- -- 58
2020-06-08 23:00:00 18.6 19 Sur 28 Sur 0 -- -- 54
2020-06-08 22:00:00 19.3 10 Sudoeste 13 Sudoeste 0 -- -- 49
2020-06-08 21:00:00 22 6 Sudoeste 19 Oeste 0 -- -- 40
2020-06-08 20:00:00 23.2 10 Oeste 27 Noroeste 0 -- -- 36
2020-06-08 19:00:00 23 13 Noroeste 27 Noroeste 0 -- -- 31
2020-06-08 18:00:00 22.6 15 Oeste 33 Oeste 0 -- -- 29
2020-06-08 17:00:00 22 23 Sudoeste 43 Sudoeste 0 -- -- 30
2020-06-08 16:00:00 21.4 24 Sudoeste 35 Sudoeste 0 -- -- 25
2020-06-08 15:00:00 20.5 22 Sudoeste 32 Oeste 0 -- -- 36
2020-06-08 14:00:00 19.6 21 Sudoeste 39 Oeste 0 -- -- 39
2020-06-08 13:00:00 19.6 26 Sudoeste 37 Sudoeste 0 -- -- 48
2020-06-08 12:00:00 19.3 18 Sudoeste 33 Sudoeste 0 -- -- 53
2020-06-08 11:00:00 17.7 22 Sudoeste 31 Sudoeste 0 -- -- 62
2020-06-08 10:00:00 17.3 18 Sudoeste 26 Sudoeste 0 -- -- 67
2020-06-08 09:00:00 15.7 12 Sudoeste 23 Sudoeste 0 -- -- 80
2020-06-08 08:00:00 15.5 6 Sudoeste 14 Sur 0 -- -- 83
2020-06-08 07:00:00 15.4 10 Sur 17 Sudoeste 0 -- -- 81
2020-06-08 06:00:00 15.7 15 Sudoeste 22 Sudoeste 0 -- -- 79
2020-06-08 05:00:00 16 10 Sudoeste 29 Sudoeste 0 -- -- 79
2020-06-08 04:00:00 16.1 20 Sudoeste 31 Sudoeste 0 -- -- 78
2020-06-08 03:00:00 16.2 10 Sudoeste 23 Sur 0 -- -- 77
2020-06-08 02:00:00 16.4 17 Sur 32 Sudoeste 0 -- -- 76
2020-06-08 01:00:00 17.1 26 Sudoeste 45 Sudoeste 0 -- -- 74
2020-06-08 00:00:00 17.8 26 Sudoeste 40 Sudoeste 0 -- -- 70
2020-06-07 23:00:00 18.6 22 Sudoeste 36 Sudoeste 0 -- -- 66
2020-06-07 22:00:00 19.5 22 Sudoeste 34 Sudoeste 0 -- -- 61
2020-06-07 21:00:00 20.9 26 Sudoeste 41 Sudoeste 0 -- -- 56
2020-06-07 20:00:00 22 28 Sudoeste 44 Oeste 0 -- -- 51
2020-06-07 19:00:00 23.2 32 Sudoeste 46 Sudoeste 0 -- -- 47
2020-06-07 18:00:00 23.4 30 Sudoeste 50 Sudoeste 0 -- -- 47
2020-06-07 17:00:00 23.2 32 Sudoeste 69 Sudoeste 0 -- -- 47
2020-06-07 16:00:00 23.8 26 Sudoeste 49 Sudoeste 0 -- -- 45
2020-06-07 15:00:00 23.2 29 Oeste 42 Sudoeste 0 -- -- 49
2020-06-07 14:00:00 22.5 28 Sudoeste 42 Sudoeste 0 -- -- 50
2020-06-07 13:00:00 21.7 27 Sudoeste 42 Oeste 0 -- -- 54
2020-06-07 12:00:00 20.9 23 Sudoeste 35 Sudoeste 0 -- -- 57
2020-06-07 11:00:00 19.6 24 Sudoeste 37 Sudoeste 0 -- -- 58
2020-06-07 10:00:00 18.8 24 Sudoeste 33 Sudoeste 0 -- -- 61
2020-06-07 09:00:00 17.1 13 Sudoeste 22 Sudoeste 0 -- -- 73
2020-06-07 08:00:00 16.5 13 Sudoeste 19 Sudoeste 0 -- -- 76
2020-06-07 07:00:00 16.5 17 Sudoeste 26 Sudoeste 0 -- -- 76
2020-06-07 06:00:00 16.8 18 Sudoeste 31 Sudoeste 0 -- -- 73
2020-06-07 05:00:00 17.3 14 Sudoeste 24 Oeste 0 -- -- 67
2020-06-07 04:00:00 17.1 16 Sudoeste 35 Sudoeste 0 -- -- 65
2020-06-07 03:00:00 16.9 20 Sudoeste 29 Sudoeste 0 -- -- 66
2020-06-07 02:00:00 17.1 28 Sudoeste 45 Sudoeste 0 -- -- 70
2020-06-07 01:00:00 18.9 29 Sudoeste 41 Sudoeste 0 -- -- 57
2020-06-07 00:00:00 20.2 14 Sudoeste 30 Oeste 0 -- -- 55
2020-06-06 23:00:00 21.7 13 Sur 29 Sur 0 -- -- 50
2020-06-06 22:00:00 23.2 13 Sudoeste 24 Sudoeste 0 -- -- 44
2020-06-06 21:00:00 25.1 15 Oeste 33 Oeste 0 -- -- 42
2020-06-06 20:00:00 26.5 23 Oeste 45 Oeste 0 -- -- 39
2020-06-06 19:00:00 26.7 27 Oeste 40 Oeste 0 -- -- 38
2020-06-06 18:00:00 27.8 27 Oeste 41 Sudoeste 0 -- -- 36
2020-06-06 17:00:00 27.6 19 Sudoeste 44 Oeste 0 -- -- 36
2020-06-06 16:00:00 26.9 22 Sudoeste 35 Sudoeste 0 -- -- 38
2020-06-06 15:00:00 26.3 19 Sudoeste 34 Sudoeste 0 -- -- 38
2020-06-06 14:00:00 25.3 17 Sudoeste 35 Sudoeste 0 -- -- 43
2020-06-06 13:00:00 24.1 8 Sudoeste 19 Sur 0 -- -- 52
2020-06-06 12:00:00 22.6 6 Norte 13 Norte 0 -- -- 56
2020-06-06 11:00:00 21.7 4 Nordeste 14 Nordeste 0 -- -- 61
2020-06-06 10:00:00 19.7 8 Nordeste 13 Nordeste 0 -- -- 69
2020-06-06 09:00:00 17.4 0 Calma 6 Oeste 0 -- -- 80
2020-06-06 08:00:00 13.8 6 Oeste 12 Sudoeste 0 -- -- 92
2020-06-06 07:00:00 13.4 9 Sudoeste 12 Sudoeste 0 -- -- 92
2020-06-06 06:00:00 14.1 11 Sudoeste 12 Sudoeste 0 -- -- 92
2020-06-06 05:00:00 15.4 8 Sudoeste 11 Sudoeste 0 -- -- 87
2020-06-06 04:00:00 16.1 7 Sur 15 Sur 0 -- -- 84
2020-06-06 03:00:00 16.7 12 Sudoeste 19 Sudoeste 0 -- -- 82
2020-06-06 02:00:00 17.5 5 Oeste 24 Sudoeste 0 -- -- 78
2020-06-06 01:00:00 18.6 18 Sudoeste 31 Sudoeste 0 -- -- 73
2020-06-06 00:00:00 19.3 21 Sudoeste 30 Sudoeste 0 -- -- 68
2020-06-05 23:00:00 19.8 16 Sudoeste 20 Sudoeste 0 -- -- 60
2020-06-05 22:00:00 21.2 12 Sudoeste 19 Oeste 0 -- -- 53
2020-06-05 21:00:00 23.6 13 Oeste 22 Oeste 0 -- -- 47
2020-06-05 20:00:00 25 16 Oeste 31 Sudoeste 0 -- -- 47
2020-06-05 19:00:00 25.6 18 Oeste 32 Sudoeste 0 -- -- 45
2020-06-05 18:00:00 25 20 Sudoeste 30 Sudoeste 0 -- -- 46
2020-06-05 17:00:00 25.2 21 Sudoeste 35 Sudoeste 0 -- -- 48
2020-06-05 16:00:00 24.5 14 Sudoeste 31 Oeste 0 -- -- 49
2020-06-05 15:00:00 24 22 Sudoeste 32 Sudoeste 0 -- -- 48
2020-06-05 14:00:00 23 14 Sudoeste 30 Sudoeste 0 -- -- 54
2020-06-05 13:00:00 21.6 15 Sudoeste 27 Sudoeste 0 -- -- 60
2020-06-05 12:00:00 20 16 Sudoeste 30 Sudoeste 0 -- -- 66
2020-06-05 11:00:00 19 18 Sudoeste 26 Sudoeste 0 -- -- 75
2020-06-05 10:00:00 18.2 10 Sudoeste 16 Sudoeste 0 -- -- 80
2020-06-05 09:00:00 16.9 6 Sudoeste 10 Sudoeste 0 -- -- 87
2020-06-05 08:00:00 14.8 7 Sudoeste 10 Sudoeste 0 -- -- 94
2020-06-05 07:00:00 15.2 7 Sudoeste 13 Sudoeste 0 -- -- 91
2020-06-05 06:00:00 15.2 10 Sudoeste 18 Sur 0 -- -- 91
2020-06-05 05:00:00 15.9 15 Sur 21 Sudoeste 0 -- -- 89
2020-06-05 04:00:00 15.8 15 Sur 26 Sur 0 -- -- 90
2020-06-05 03:00:00 15.9 13 Sudoeste 30 Sur 0 -- -- 86
2020-06-05 02:00:00 16 22 Sudoeste 40 Sudoeste 0 -- -- 84
2020-06-05 01:00:00 16.3 23 Sur 36 Sur 0 -- -- 80
2020-06-05 00:00:00 16.6 26 Sudoeste 42 Sudoeste 0 -- -- 78
2020-06-04 23:00:00 17.5 22 Sudoeste 40 Sudoeste 0 -- -- 79
2020-06-04 22:00:00 18 22 Sudoeste 42 Sudoeste 0.2 -- -- 77
2020-06-04 21:00:00 18.5 22 Sudoeste 41 Sudoeste 0 -- -- 83
2020-06-04 20:00:00 18.4 20 Sudoeste 40 Oeste 0.4 -- -- 87
2020-06-04 19:00:00 19 23 Sudoeste 41 Sudoeste 0 -- -- 85
2020-06-04 18:00:00 16.6 19 Sur 40 Sudoeste 3.8 -- -- 90
2020-06-04 17:00:00 20.1 22 Sudoeste 38 Oeste 0 -- -- 72
2020-06-04 16:00:00 20.3 24 Sudoeste 38 Oeste 0 -- -- 67
2020-06-04 15:00:00 19.9 23 Oeste 39 Sudoeste 0 -- -- 65
2020-06-04 14:00:00 19.4 23 Sudoeste 40 Sudoeste 0 -- -- 67
2020-06-04 13:00:00 19.6 23 Sudoeste 45 Oeste 0 -- -- 64
2020-06-04 12:00:00 19.8 29 Sudoeste 41 Sudoeste 0 -- -- 64
2020-06-04 11:00:00 18.1 26 Sudoeste 37 Sudoeste 0 -- -- 69
2020-06-04 10:00:00 17.3 20 Sudoeste 37 Sudoeste 0 -- -- 75
2020-06-04 09:00:00 16.7 22 Sudoeste 31 Sudoeste 0 -- -- 81
2020-06-04 08:00:00 16.6 20 Sudoeste 27 Sudoeste 0 -- -- 85
2020-06-04 07:00:00 16.8 17 Sudoeste 24 Sudoeste 0 -- -- 84
2020-06-04 06:00:00 16.9 15 Sudoeste 24 Sudoeste 0 -- -- 82
2020-06-04 05:00:00 16.6 13 Sudoeste 33 Sudoeste 0 -- -- 82
2020-06-04 04:00:00 16.7 22 Sudoeste 33 Sudoeste 0 -- -- 82
2020-06-04 03:00:00 17.5 25 Sudoeste 37 Sudoeste 0 -- -- 65
2020-06-04 02:00:00 18 17 Sudoeste 35 Sudoeste 0 -- -- 58
2020-06-04 01:00:00 18.5 23 Sudoeste 36 Sudoeste 0 -- -- 60
2020-06-04 00:00:00 19.6 22 Sur 39 Sudoeste 0 -- -- 55
2020-06-03 23:00:00 20.5 19 Sur 39 Sudoeste 0 -- -- 49
2020-06-03 22:00:00 22 21 Sudoeste 36 Sudoeste 0 -- -- 51
2020-06-03 21:00:00 24.2 15 Oeste 36 Oeste 0 -- -- 49
2020-06-03 20:00:00 25.7 26 Oeste 39 Oeste 0 -- -- 45
2020-06-03 19:00:00 26.9 21 Sudoeste 40 Sudoeste 0 -- -- 40
2020-06-03 18:00:00 26.8 23 Sudoeste 38 Oeste 0 -- -- 42
2020-06-03 17:00:00 26.4 21 Oeste 36 Sudoeste 0 -- -- 41
2020-06-03 16:00:00 26.1 17 Oeste 36 Sudoeste 0 -- -- 43
2020-06-03 15:00:00 25.9 22 Sudoeste 36 Sudoeste 0 -- -- 43
2020-06-03 14:00:00 25.5 18 Sudoeste 26 Sudoeste 0 -- -- 40
2020-06-03 13:00:00 24.9 13 Norte 19 Norte 0 -- -- 49
2020-06-03 12:00:00 24 9 Nordeste 20 Nordeste 0 -- -- 53
2020-06-03 11:00:00 22.3 5 Norte 13 Nordeste 0 -- -- 58
2020-06-03 10:00:00 20.3 6 Norte 10 Noroeste 0 -- -- 65
2020-06-03 09:00:00 17.2 4 Sudoeste 11 Sudoeste 0 -- -- 75
2020-06-03 08:00:00 14 7 Sudoeste 9 Sudoeste 0 -- -- 87
2020-06-03 07:00:00 13.9 0 Calma 9 Sudoeste 0 -- -- 86
2020-06-03 06:00:00 14.4 8 Sudoeste 9 Sudoeste 0 -- -- 84
2020-06-03 05:00:00 15.9 6 Sudoeste 8 Sudoeste 0 -- -- 79
2020-06-03 04:00:00 16.9 5 Sudoeste 9 Sur 0 -- -- 74
2020-06-03 03:00:00 17.7 8 Sur 12 Sudoeste 0 -- -- 73
2020-06-03 02:00:00 18.6 10 Sudoeste 19 Sudoeste 0 -- -- 71
2020-06-03 01:00:00 19.7 12 Sudoeste 26 Sudoeste 0 -- -- 69
2020-06-03 00:00:00 20.7 9 Sudoeste 17 Sudoeste 0 -- -- 64